sensor_id;sensor_type;location;lat;lon;timestamp;P1;durP1;ratioP1;P2;durP2;ratioP2
21170;SDS011;10743;52.160;20.910;2023-03-20T00:03:51;243.93;;;82.70;;
21170;SDS011;10743;52.160;20.910;2023-03-20T00:06:20;242.33;;;82.70;;
21170;SDS011;10743;52.160;20.910;2023-03-20T00:08:50;248.50;;;83.80;;
21170;SDS011;10743;52.160;20.910;2023-03-20T00:11:29;238.03;;;81.50;;
21170;SDS011;10743;52.160;20.910;2023-03-20T00:14:02;243.73;;;82.60;;
21170;SDS011;10743;52.160;20.910;2023-03-20T00:16:37;246.10;;;83.97;;
21170;SDS011;10743;52.160;20.910;2023-03-20T00:19:16;238.83;;;82.90;;
21170;SDS011;10743;52.160;20.910;2023-03-20T00:21:56;249.57;;;81.70;;
21170;SDS011;10743;52.160;20.910;2023-03-20T00:24:24;253.70;;;83.97;;
21170;SDS011;10743;52.160;20.910;2023-03-20T00:26:51;252.77;;;83.57;;
21170;SDS011;10743;52.160;20.910;2023-03-20T00:29:26;252.27;;;82.97;;
21170;SDS011;10743;52.160;20.910;2023-03-20T00:31:56;243.00;;;81.87;;
21170;SDS011;10743;52.160;20.910;2023-03-20T00:34:25;243.27;;;82.53;;
21170;SDS011;10743;52.160;20.910;2023-03-20T00:36:57;237.07;;;80.20;;
21170;SDS011;10743;52.160;20.910;2023-03-20T00:39:28;241.93;;;79.73;;
21170;SDS011;10743;52.160;20.910;2023-03-20T00:42:01;238.47;;;81.23;;
21170;SDS011;10743;52.160;20.910;2023-03-20T00:47:22;250.40;;;81.33;;
21170;SDS011;10743;52.160;20.910;2023-03-20T00:49:51;230.53;;;79.13;;
21170;SDS011;10743;52.160;20.910;2023-03-20T00:52:20;243.67;;;79.73;;
21170;SDS011;10743;52.160;20.910;2023-03-20T00:54:49;235.57;;;79.03;;
21170;SDS011;10743;52.160;20.910;2023-03-20T00:57:21;240.23;;;80.40;;
21170;SDS011;10743;52.160;20.910;2023-03-20T01:02:27;234.43;;;78.93;;
21170;SDS011;10743;52.160;20.910;2023-03-20T01:04:55;242.83;;;82.67;;
21170;SDS011;10743;52.160;20.910;2023-03-20T01:07:24;223.37;;;79.60;;
21170;SDS011;10743;52.160;20.910;2023-03-20T01:09:51;238.57;;;80.20;;
21170;SDS011;10743;52.160;20.910;2023-03-20T01:12:18;235.30;;;79.10;;
21170;SDS011;10743;52.160;20.910;2023-03-20T01:14:47;236.10;;;78.47;;
21170;SDS011;10743;52.160;20.910;2023-03-20T01:17:20;229.60;;;77.80;;
21170;SDS011;10743;52.160;20.910;2023-03-20T01:19:49;230.83;;;76.73;;
21170;SDS011;10743;52.160;20.910;2023-03-20T01:22:16;235.13;;;78.43;;
21170;SDS011;10743;52.160;20.910;2023-03-20T01:24:43;226.77;;;78.73;;
21170;SDS011;10743;52.160;20.910;2023-03-20T01:27:12;230.97;;;78.10;;
21170;SDS011;10743;52.160;20.910;2023-03-20T01:29:42;232.23;;;79.87;;
21170;SDS011;10743;52.160;20.910;2023-03-20T01:32:11;233.20;;;80.10;;
21170;SDS011;10743;52.160;20.910;2023-03-20T01:34:45;235.57;;;79.13;;
21170;SDS011;10743;52.160;20.910;2023-03-20T01:37:16;236.73;;;79.00;;
21170;SDS011;10743;52.160;20.910;2023-03-20T01:39:52;232.67;;;79.33;;
21170;SDS011;10743;52.160;20.910;2023-03-20T01:42:21;229.83;;;79.83;;
21170;SDS011;10743;52.160;20.910;2023-03-20T01:44:49;233.93;;;79.13;;
21170;SDS011;10743;52.160;20.910;2023-03-20T01:47:18;235.83;;;79.33;;
21170;SDS011;10743;52.160;20.910;2023-03-20T01:52:50;225.57;;;76.77;;
21170;SDS011;10743;52.160;20.910;2023-03-20T01:55:25;226.47;;;77.53;;
21170;SDS011;10743;52.160;20.910;2023-03-20T01:57:57;226.27;;;76.80;;
21170;SDS011;10743;52.160;20.910;2023-03-20T02:00:31;230.00;;;77.53;;
21170;SDS011;10743;52.160;20.910;2023-03-20T02:03:00;222.87;;;75.33;;
21170;SDS011;10743;52.160;20.910;2023-03-20T02:05:56;219.83;;;77.23;;
21170;SDS011;10743;52.160;20.910;2023-03-20T02:08:36;224.87;;;76.30;;
21170;SDS011;10743;52.160;20.910;2023-03-20T02:11:15;221.07;;;75.77;;
21170;SDS011;10743;52.160;20.910;2023-03-20T02:13:48;222.60;;;74.63;;
21170;SDS011;10743;52.160;20.910;2023-03-20T02:16:22;223.67;;;74.67;;
21170;SDS011;10743;52.160;20.910;2023-03-20T02:19:10;218.60;;;73.37;;
21170;SDS011;10743;52.160;20.910;2023-03-20T02:24:43;215.90;;;73.47;;
21170;SDS011;10743;52.160;20.910;2023-03-20T02:27:36;217.13;;;73.43;;
21170;SDS011;10743;52.160;20.910;2023-03-20T02:33:51;219.07;;;74.87;;
21170;SDS011;10743;52.160;20.910;2023-03-20T02:46:48;218.13;;;73.00;;
21170;SDS011;10743;52.160;20.910;2023-03-20T03:00:46;219.47;;;74.03;;
21170;SDS011;10743;52.160;20.910;2023-03-20T03:03:42;214.07;;;73.20;;
21170;SDS011;10743;52.160;20.910;2023-03-20T03:06:24;213.70;;;72.93;;
21170;SDS011;10743;52.160;20.910;2023-03-20T03:12:13;216.13;;;73.10;;
21170;SDS011;10743;52.160;20.910;2023-03-20T03:14:46;213.03;;;73.37;;
21170;SDS011;10743;52.160;20.910;2023-03-20T03:17:18;214.67;;;73.03;;
21170;SDS011;10743;52.160;20.910;2023-03-20T03:19:50;220.77;;;75.10;;
21170;SDS011;10743;52.160;20.910;2023-03-20T03:22:23;213.30;;;73.80;;
21170;SDS011;10743;52.160;20.910;2023-03-20T03:24:52;208.07;;;72.43;;
21170;SDS011;10743;52.160;20.910;2023-03-20T03:30:01;220.07;;;73.20;;
21170;SDS011;10743;52.160;20.910;2023-03-20T03:32:50;220.67;;;74.37;;
21170;SDS011;10743;52.160;20.910;2023-03-20T03:35:47;213.10;;;73.47;;
21170;SDS011;10743;52.160;20.910;2023-03-20T03:38:21;211.60;;;73.70;;
21170;SDS011;10743;52.160;20.910;2023-03-20T03:41:04;222.53;;;74.03;;
21170;SDS011;10743;52.160;20.910;2023-03-20T03:49:34;211.20;;;73.13;;
21170;SDS011;10743;52.160;20.910;2023-03-20T03:52:08;213.33;;;73.27;;
21170;SDS011;10743;52.160;20.910;2023-03-20T03:54:42;219.43;;;74.63;;
21170;SDS011;10743;52.160;20.910;2023-03-20T03:57:30;213.40;;;73.73;;
21170;SDS011;10743;52.160;20.910;2023-03-20T04:00:06;218.57;;;75.80;;
21170;SDS011;10743;52.160;20.910;2023-03-20T04:02:43;217.87;;;74.47;;
21170;SDS011;10743;52.160;20.910;2023-03-20T04:05:13;213.93;;;74.67;;
21170;SDS011;10743;52.160;20.910;2023-03-20T04:07:46;213.87;;;73.10;;
21170;SDS011;10743;52.160;20.910;2023-03-20T04:10:15;212.63;;;73.67;;
21170;SDS011;10743;52.160;20.910;2023-03-20T04:12:43;211.57;;;74.53;;
21170;SDS011;10743;52.160;20.910;2023-03-20T04:15:11;221.97;;;74.53;;
21170;SDS011;10743;52.160;20.910;2023-03-20T04:17:40;220.77;;;74.43;;
21170;SDS011;10743;52.160;20.910;2023-03-20T04:20:09;212.83;;;73.83;;
21170;SDS011;10743;52.160;20.910;2023-03-20T04:22:38;215.27;;;74.10;;
21170;SDS011;10743;52.160;20.910;2023-03-20T04:25:09;218.83;;;73.77;;
21170;SDS011;10743;52.160;20.910;2023-03-20T04:27:42;210.30;;;72.70;;
21170;SDS011;10743;52.160;20.910;2023-03-20T04:30:17;210.10;;;73.73;;
21170;SDS011;10743;52.160;20.910;2023-03-20T04:33:19;213.37;;;73.43;;
21170;SDS011;10743;52.160;20.910;2023-03-20T04:36:22;210.87;;;71.97;;
21170;SDS011;10743;52.160;20.910;2023-03-20T04:38:51;213.57;;;73.60;;
21170;SDS011;10743;52.160;20.910;2023-03-20T04:41:20;213.30;;;74.60;;
21170;SDS011;10743;52.160;20.910;2023-03-20T04:43:51;213.97;;;71.97;;
21170;SDS011;10743;52.160;20.910;2023-03-20T04:46:18;222.87;;;75.23;;
21170;SDS011;10743;52.160;20.910;2023-03-20T04:48:46;216.87;;;75.17;;
21170;SDS011;10743;52.160;20.910;2023-03-20T04:51:14;218.30;;;73.60;;
21170;SDS011;10743;52.160;20.910;2023-03-20T04:53:48;216.27;;;74.07;;
21170;SDS011;10743;52.160;20.910;2023-03-20T04:56:16;208.67;;;71.97;;
21170;SDS011;10743;52.160;20.910;2023-03-20T04:58:44;215.40;;;73.37;;
21170;SDS011;10743;52.160;20.910;2023-03-20T05:01:12;206.73;;;74.30;;
21170;SDS011;10743;52.160;20.910;2023-03-20T05:03:39;213.50;;;74.60;;
21170;SDS011;10743;52.160;20.910;2023-03-20T05:06:07;210.47;;;73.10;;
21170;SDS011;10743;52.160;20.910;2023-03-20T05:08:38;215.80;;;74.67;;
21170;SDS011;10743;52.160;20.910;2023-03-20T05:11:05;221.90;;;73.73;;
21170;SDS011;10743;52.160;20.910;2023-03-20T05:13:53;212.57;;;75.23;;
21170;SDS011;10743;52.160;20.910;2023-03-20T05:16:39;217.83;;;74.67;;
21170;SDS011;10743;52.160;20.910;2023-03-20T05:19:38;215.27;;;75.07;;
21170;SDS011;10743;52.160;20.910;2023-03-20T05:22:06;213.13;;;73.60;;
21170;SDS011;10743;52.160;20.910;2023-03-20T05:24:48;210.93;;;75.43;;
21170;SDS011;10743;52.160;20.910;2023-03-20T05:27:35;217.17;;;73.90;;
21170;SDS011;10743;52.160;20.910;2023-03-20T05:30:21;205.77;;;73.23;;
21170;SDS011;10743;52.160;20.910;2023-03-20T05:33:06;216.27;;;73.80;;
21170;SDS011;10743;52.160;20.910;2023-03-20T05:35:52;209.93;;;74.33;;
21170;SDS011;10743;52.160;20.910;2023-03-20T05:38:54;199.73;;;73.13;;
21170;SDS011;10743;52.160;20.910;2023-03-20T05:41:23;225.30;;;76.50;;
21170;SDS011;10743;52.160;20.910;2023-03-20T05:44:23;221.10;;;75.00;;
21170;SDS011;10743;52.160;20.910;2023-03-20T05:47:03;219.37;;;78.60;;
21170;SDS011;10743;52.160;20.910;2023-03-20T05:49:51;225.53;;;77.07;;
21170;SDS011;10743;52.160;20.910;2023-03-20T05:52:24;226.13;;;77.00;;
21170;SDS011;10743;52.160;20.910;2023-03-20T05:55:10;223.30;;;78.73;;
21170;SDS011;10743;52.160;20.910;2023-03-20T05:57:56;223.53;;;78.87;;
21170;SDS011;10743;52.160;20.910;2023-03-20T06:00:39;221.43;;;77.47;;
21170;SDS011;10743;52.160;20.910;2023-03-20T06:03:44;223.87;;;76.40;;
21170;SDS011;10743;52.160;20.910;2023-03-20T06:06:18;209.73;;;74.77;;
21170;SDS011;10743;52.160;20.910;2023-03-20T06:08:49;213.17;;;74.27;;
21170;SDS011;10743;52.160;20.910;2023-03-20T06:11:16;211.80;;;74.17;;
21170;SDS011;10743;52.160;20.910;2023-03-20T06:13:43;212.00;;;73.13;;
21170;SDS011;10743;52.160;20.910;2023-03-20T06:16:11;213.00;;;71.70;;
21170;SDS011;10743;52.160;20.910;2023-03-20T06:18:38;219.47;;;71.50;;
21170;SDS011;10743;52.160;20.910;2023-03-20T06:21:07;221.03;;;73.47;;
21170;SDS011;10743;52.160;20.910;2023-03-20T06:23:34;212.97;;;73.83;;
21170;SDS011;10743;52.160;20.910;2023-03-20T06:26:02;223.73;;;73.80;;
21170;SDS011;10743;52.160;20.910;2023-03-20T06:28:41;218.93;;;73.77;;
21170;SDS011;10743;52.160;20.910;2023-03-20T06:31:08;218.90;;;72.17;;
21170;SDS011;10743;52.160;20.910;2023-03-20T06:33:36;215.47;;;73.93;;
21170;SDS011;10743;52.160;20.910;2023-03-20T06:36:03;220.00;;;73.30;;
21170;SDS011;10743;52.160;20.910;2023-03-20T06:38:31;218.83;;;73.63;;
21170;SDS011;10743;52.160;20.910;2023-03-20T06:41:04;224.03;;;74.23;;
21170;SDS011;10743;52.160;20.910;2023-03-20T06:43:33;237.33;;;78.70;;
21170;SDS011;10743;52.160;20.910;2023-03-20T06:46:00;226.10;;;75.13;;
21170;SDS011;10743;52.160;20.910;2023-03-20T06:48:29;234.30;;;74.83;;
21170;SDS011;10743;52.160;20.910;2023-03-20T06:50:56;236.67;;;76.93;;
21170;SDS011;10743;52.160;20.910;2023-03-20T06:53:30;232.53;;;74.47;;
21170;SDS011;10743;52.160;20.910;2023-03-20T06:56:05;225.27;;;72.03;;
21170;SDS011;10743;52.160;20.910;2023-03-20T06:58:33;212.50;;;71.70;;
21170;SDS011;10743;52.160;20.910;2023-03-20T07:01:01;218.07;;;70.60;;
21170;SDS011;10743;52.160;20.910;2023-03-20T07:03:28;217.30;;;71.23;;
21170;SDS011;10743;52.160;20.910;2023-03-20T07:05:56;212.23;;;71.17;;
21170;SDS011;10743;52.160;20.910;2023-03-20T07:08:23;218.73;;;72.53;;
21170;SDS011;10743;52.160;20.910;2023-03-20T07:10:50;218.80;;;72.63;;
21170;SDS011;10743;52.160;20.910;2023-03-20T07:13:17;215.13;;;71.47;;
21170;SDS011;10743;52.160;20.910;2023-03-20T07:15:46;217.37;;;73.13;;
21170;SDS011;10743;52.160;20.910;2023-03-20T07:18:33;221.57;;;72.17;;
21170;SDS011;10743;52.160;20.910;2023-03-20T07:21:01;225.07;;;74.07;;
21170;SDS011;10743;52.160;20.910;2023-03-20T07:23:31;226.97;;;74.33;;
21170;SDS011;10743;52.160;20.910;2023-03-20T07:26:00;223.10;;;73.67;;
21170;SDS011;10743;52.160;20.910;2023-03-20T07:28:29;230.23;;;74.87;;
21170;SDS011;10743;52.160;20.910;2023-03-20T07:31:11;224.20;;;74.07;;
21170;SDS011;10743;52.160;20.910;2023-03-20T07:33:56;223.90;;;74.83;;
21170;SDS011;10743;52.160;20.910;2023-03-20T07:36:23;233.83;;;75.77;;
21170;SDS011;10743;52.160;20.910;2023-03-20T07:38:51;239.07;;;77.33;;
21170;SDS011;10743;52.160;20.910;2023-03-20T07:41:18;232.10;;;75.93;;
21170;SDS011;10743;52.160;20.910;2023-03-20T07:43:55;293.70;;;102.30;;
21170;SDS011;10743;52.160;20.910;2023-03-20T07:46:33;314.13;;;113.27;;
21170;SDS011;10743;52.160;20.910;2023-03-20T07:49:00;288.17;;;102.00;;
21170;SDS011;10743;52.160;20.910;2023-03-20T07:51:27;256.27;;;83.60;;
21170;SDS011;10743;52.160;20.910;2023-03-20T07:53:55;252.10;;;85.30;;
21170;SDS011;10743;52.160;20.910;2023-03-20T07:56:22;246.97;;;83.10;;
21170;SDS011;10743;52.160;20.910;2023-03-20T07:58:49;249.60;;;83.27;;
21170;SDS011;10743;52.160;20.910;2023-03-20T08:01:16;255.50;;;83.73;;
21170;SDS011;10743;52.160;20.910;2023-03-20T08:03:43;246.87;;;81.53;;
21170;SDS011;10743;52.160;20.910;2023-03-20T08:06:10;240.80;;;78.87;;
21170;SDS011;10743;52.160;20.910;2023-03-20T08:08:37;242.10;;;80.23;;
21170;SDS011;10743;52.160;20.910;2023-03-20T08:11:04;253.00;;;81.65;;
21170;SDS011;10743;52.160;20.910;2023-03-20T08:13:31;245.70;;;78.73;;
21170;SDS011;10743;52.160;20.910;2023-03-20T08:15:58;241.03;;;79.33;;
21170;SDS011;10743;52.160;20.910;2023-03-20T08:18:26;241.20;;;79.23;;
21170;SDS011;10743;52.160;20.910;2023-03-20T08:20:53;230.90;;;83.40;;
21170;SDS011;10743;52.160;20.910;2023-03-20T08:23:20;251.97;;;85.63;;
21170;SDS011;10743;52.160;20.910;2023-03-20T08:25:48;245.20;;;81.93;;
21170;SDS011;10743;52.160;20.910;2023-03-20T08:28:16;242.80;;;78.27;;
21170;SDS011;10743;52.160;20.910;2023-03-20T08:30:43;242.65;;;77.90;;
21170;SDS011;10743;52.160;20.910;2023-03-20T08:33:11;234.37;;;76.83;;
21170;SDS011;10743;52.160;20.910;2023-03-20T08:35:39;239.10;;;77.43;;
21170;SDS011;10743;52.160;20.910;2023-03-20T08:38:08;232.77;;;75.77;;
21170;SDS011;10743;52.160;20.910;2023-03-20T08:40:41;231.30;;;74.37;;
21170;SDS011;10743;52.160;20.910;2023-03-20T08:43:08;238.30;;;75.47;;
21170;SDS011;10743;52.160;20.910;2023-03-20T08:45:35;234.25;;;75.93;;
21170;SDS011;10743;52.160;20.910;2023-03-20T08:48:03;238.77;;;79.33;;
21170;SDS011;10743;52.160;20.910;2023-03-20T08:50:30;234.03;;;76.30;;
21170;SDS011;10743;52.160;20.910;2023-03-20T08:52:57;225.97;;;73.13;;
21170;SDS011;10743;52.160;20.910;2023-03-20T08:55:24;234.80;;;74.03;;
21170;SDS011;10743;52.160;20.910;2023-03-20T08:57:51;236.07;;;77.43;;
21170;SDS011;10743;52.160;20.910;2023-03-20T09:00:23;234.83;;;74.47;;
21170;SDS011;10743;52.160;20.910;2023-03-20T09:02:50;231.80;;;74.10;;
21170;SDS011;10743;52.160;20.910;2023-03-20T09:05:17;235.25;;;77.20;;
21170;SDS011;10743;52.160;20.910;2023-03-20T09:07:44;232.77;;;74.45;;
21170;SDS011;10743;52.160;20.910;2023-03-20T09:10:11;231.25;;;76.32;;
21170;SDS011;10743;52.160;20.910;2023-03-20T09:12:39;244.40;;;77.30;;
21170;SDS011;10743;52.160;20.910;2023-03-20T09:15:06;246.02;;;79.65;;
21170;SDS011;10743;52.160;20.910;2023-03-20T09:17:33;233.60;;;74.28;;
21170;SDS011;10743;52.160;20.910;2023-03-20T09:20:01;229.63;;;71.40;;
21170;SDS011;10743;52.160;20.910;2023-03-20T09:22:29;232.40;;;72.15;;
21170;SDS011;10743;52.160;20.910;2023-03-20T09:24:56;230.40;;;92.00;;
21170;SDS011;10743;52.160;20.910;2023-03-20T09:27:23;126.28;;;59.75;;
21170;SDS011;10743;52.160;20.910;2023-03-20T09:29:50;158.90;;;64.38;;
21170;SDS011;10743;52.160;20.910;2023-03-20T09:32:17;149.93;;;61.53;;
21170;SDS011;10743;52.160;20.910;2023-03-20T09:34:44;148.05;;;62.25;;
21170;SDS011;10743;52.160;20.910;2023-03-20T09:37:11;169.35;;;66.20;;
21170;SDS011;10743;52.160;20.910;2023-03-20T09:39:38;198.85;;;71.95;;
21170;SDS011;10743;52.160;20.910;2023-03-20T09:45:01;193.98;;;70.15;;
21170;SDS011;10743;52.160;20.910;2023-03-20T09:47:58;192.68;;;70.38;;
21170;SDS011;10743;52.160;20.910;2023-03-20T09:50:33;113.95;;;54.63;;
21170;SDS011;10743;52.160;20.910;2023-03-20T09:55:52;158.93;;;63.63;;
21170;SDS011;10743;52.160;20.910;2023-03-20T10:00:57;183.23;;;67.68;;
21170;SDS011;10743;52.160;20.910;2023-03-20T10:03:35;174.07;;;65.32;;
21170;SDS011;10743;52.160;20.910;2023-03-20T10:06:12;171.43;;;66.05;;
21170;SDS011;10743;52.160;20.910;2023-03-20T10:08:42;179.25;;;67.20;;
21170;SDS011;10743;52.160;20.910;2023-03-20T10:16:58;184.25;;;69.28;;
21170;SDS011;10743;52.160;20.910;2023-03-20T10:20:13;217.93;;;72.45;;
21170;SDS011;10743;52.160;20.910;2023-03-20T10:22:55;194.18;;;71.20;;
21170;SDS011;10743;52.160;20.910;2023-03-20T10:25:34;198.07;;;71.20;;
21170;SDS011;10743;52.160;20.910;2023-03-20T10:28:11;218.02;;;73.32;;
21170;SDS011;10743;52.160;20.910;2023-03-20T10:31:27;228.88;;;75.03;;
21170;SDS011;10743;52.160;20.910;2023-03-20T10:42:32;245.55;;;76.95;;
21170;SDS011;10743;52.160;20.910;2023-03-20T10:45:07;248.45;;;78.18;;
21170;SDS011;10743;52.160;20.910;2023-03-20T10:48:00;249.82;;;78.28;;
21170;SDS011;10743;52.160;20.910;2023-03-20T10:50:36;246.77;;;79.68;;
21170;SDS011;10743;52.160;20.910;2023-03-20T10:53:17;247.60;;;80.22;;
21170;SDS011;10743;52.160;20.910;2023-03-20T10:55:55;237.25;;;79.07;;
21170;SDS011;10743;52.160;20.910;2023-03-20T10:58:29;241.63;;;80.30;;
21170;SDS011;10743;52.160;20.910;2023-03-20T11:01:02;250.63;;;80.90;;
21170;SDS011;10743;52.160;20.910;2023-03-20T11:03:30;246.18;;;83.07;;
21170;SDS011;10743;52.160;20.910;2023-03-20T11:06:00;247.20;;;80.47;;
21170;SDS011;10743;52.160;20.910;2023-03-20T11:08:39;236.18;;;80.07;;
21170;SDS011;10743;52.160;20.910;2023-03-20T11:11:08;186.48;;;76.07;;
21170;SDS011;10743;52.160;20.910;2023-03-20T11:13:40;218.65;;;77.15;;
21170;SDS011;10743;52.160;20.910;2023-03-20T11:16:10;228.82;;;79.75;;
21170;SDS011;10743;52.160;20.910;2023-03-20T11:18:45;221.25;;;79.15;;
21170;SDS011;10743;52.160;20.910;2023-03-20T11:21:19;217.65;;;77.95;;
21170;SDS011;10743;52.160;20.910;2023-03-20T11:23:56;220.23;;;77.15;;
21170;SDS011;10743;52.160;20.910;2023-03-20T11:29:07;234.15;;;77.97;;
21170;SDS011;10743;52.160;20.910;2023-03-20T11:31:49;216.02;;;78.55;;
21170;SDS011;10743;52.160;20.910;2023-03-20T11:36:44;211.90;;;76.75;;
21170;SDS011;10743;52.160;20.910;2023-03-20T11:39:35;210.35;;;77.22;;
21170;SDS011;10743;52.160;20.910;2023-03-20T11:42:18;197.20;;;75.25;;
21170;SDS011;10743;52.160;20.910;2023-03-20T11:44:55;246.43;;;78.88;;
21170;SDS011;10743;52.160;20.910;2023-03-20T11:47:25;232.63;;;79.40;;
21170;SDS011;10743;52.160;20.910;2023-03-20T11:49:55;239.75;;;80.38;;
21170;SDS011;10743;52.160;20.910;2023-03-20T11:52:29;245.50;;;78.55;;
21170;SDS011;10743;52.160;20.910;2023-03-20T11:55:02;250.13;;;79.68;;
21170;SDS011;10743;52.160;20.910;2023-03-20T12:02:46;265.85;;;79.90;;
21170;SDS011;10743;52.160;20.910;2023-03-20T12:05:18;251.45;;;77.72;;
21170;SDS011;10743;52.160;20.910;2023-03-20T12:10:40;256.75;;;80.47;;
21170;SDS011;10743;52.160;20.910;2023-03-20T12:13:17;265.73;;;79.82;;
21170;SDS011;10743;52.160;20.910;2023-03-20T12:15:51;248.10;;;79.55;;
21170;SDS011;10743;52.160;20.910;2023-03-20T12:18:35;248.55;;;78.80;;
21170;SDS011;10743;52.160;20.910;2023-03-20T12:24:12;247.13;;;77.32;;
21170;SDS011;10743;52.160;20.910;2023-03-20T12:36:07;242.90;;;76.85;;
21170;SDS011;10743;52.160;20.910;2023-03-20T12:38:41;244.30;;;76.13;;
21170;SDS011;10743;52.160;20.910;2023-03-20T12:41:13;240.38;;;74.10;;
21170;SDS011;10743;52.160;20.910;2023-03-20T12:44:09;242.40;;;75.22;;
21170;SDS011;10743;52.160;20.910;2023-03-20T12:47:10;235.48;;;73.50;;
21170;SDS011;10743;52.160;20.910;2023-03-20T12:55:24;234.18;;;73.50;;
21170;SDS011;10743;52.160;20.910;2023-03-20T13:06:31;236.10;;;71.60;;
21170;SDS011;10743;52.160;20.910;2023-03-20T13:21:09;237.45;;;74.78;;
21170;SDS011;10743;52.160;20.910;2023-03-20T13:24:31;246.75;;;76.80;;
21170;SDS011;10743;52.160;20.910;2023-03-20T13:27:30;246.18;;;77.68;;
21170;SDS011;10743;52.160;20.910;2023-03-20T13:30:18;237.90;;;78.60;;
21170;SDS011;10743;52.160;20.910;2023-03-20T13:36:06;248.48;;;79.65;;
21170;SDS011;10743;52.160;20.910;2023-03-20T13:38:56;247.15;;;79.55;;
21170;SDS011;10743;52.160;20.910;2023-03-20T13:41:31;252.30;;;82.90;;
21170;SDS011;10743;52.160;20.910;2023-03-20T13:44:00;251.98;;;80.78;;
21170;SDS011;10743;52.160;20.910;2023-03-20T13:46:32;288.65;;;84.22;;
21170;SDS011;10743;52.160;20.910;2023-03-20T13:55:05;222.30;;;77.60;;
21170;SDS011;10743;52.160;20.910;2023-03-20T14:00:30;235.93;;;76.45;;
21170;SDS011;10743;52.160;20.910;2023-03-20T14:03:18;225.30;;;75.97;;
21170;SDS011;10743;52.160;20.910;2023-03-20T14:06:00;234.95;;;75.30;;
21170;SDS011;10743;52.160;20.910;2023-03-20T14:09:02;247.15;;;78.35;;
21170;SDS011;10743;52.160;20.910;2023-03-20T14:11:29;239.80;;;74.18;;
21170;SDS011;10743;52.160;20.910;2023-03-20T14:16:43;239.23;;;74.60;;
21170;SDS011;10743;52.160;20.910;2023-03-20T14:19:18;243.43;;;75.47;;
21170;SDS011;10743;52.160;20.910;2023-03-20T14:21:49;238.15;;;74.10;;
21170;SDS011;10743;52.160;20.910;2023-03-20T14:24:19;239.00;;;74.15;;
21170;SDS011;10743;52.160;20.910;2023-03-20T14:26:50;239.32;;;73.55;;
21170;SDS011;10743;52.160;20.910;2023-03-20T14:32:20;343.48;;;90.65;;
21170;SDS011;10743;52.160;20.910;2023-03-20T14:40:00;239.85;;;75.05;;
21170;SDS011;10743;52.160;20.910;2023-03-20T14:43:03;247.98;;;78.43;;
21170;SDS011;10743;52.160;20.910;2023-03-20T14:48:29;245.02;;;77.68;;
21170;SDS011;10743;52.160;20.910;2023-03-20T14:51:21;242.15;;;75.60;;
21170;SDS011;10743;52.160;20.910;2023-03-20T14:56:49;248.25;;;74.65;;
21170;SDS011;10743;52.160;20.910;2023-03-20T14:59:21;239.75;;;75.22;;
21170;SDS011;10743;52.160;20.910;2023-03-20T15:04:27;241.88;;;73.00;;
21170;SDS011;10743;52.160;20.910;2023-03-20T15:09:45;241.82;;;74.15;;
21170;SDS011;10743;52.160;20.910;2023-03-20T15:12:16;249.38;;;74.47;;
21170;SDS011;10743;52.160;20.910;2023-03-20T15:17:33;243.02;;;72.38;;
21170;SDS011;10743;52.160;20.910;2023-03-20T15:23:03;241.65;;;71.90;;
21170;SDS011;10743;52.160;20.910;2023-03-20T15:25:32;239.30;;;70.18;;
21170;SDS011;10743;52.160;20.910;2023-03-20T15:28:04;225.63;;;68.03;;
21170;SDS011;10743;52.160;20.910;2023-03-20T15:30:35;239.88;;;71.22;;
21170;SDS011;10743;52.160;20.910;2023-03-20T15:33:04;233.70;;;69.82;;
21170;SDS011;10743;52.160;20.910;2023-03-20T15:35:35;137.90;;;94.20;;
21170;SDS011;10743;52.160;20.910;2023-03-20T15:38:04;39.15;;;15.50;;
21170;SDS011;10743;52.160;20.910;2023-03-20T15:40:36;260.25;;;110.68;;
21170;SDS011;10743;52.160;20.910;2023-03-20T15:43:23;377.52;;;283.73;;
21170;SDS011;10743;52.160;20.910;2023-03-20T15:45:52;351.23;;;237.98;;
21170;SDS011;10743;52.160;20.910;2023-03-20T15:48:48;683.35;;;611.05;;
21170;SDS011;10743;52.160;20.910;2023-03-20T15:51:15;576.95;;;515.83;;
21170;SDS011;10743;52.160;20.910;2023-03-20T15:53:45;374.20;;;320.58;;
21170;SDS011;10743;52.160;20.910;2023-03-20T15:56:14;299.45;;;231.60;;
21170;SDS011;10743;52.160;20.910;2023-03-20T15:58:46;505.42;;;404.77;;
21170;SDS011;10743;52.160;20.910;2023-03-20T16:01:18;236.43;;;95.10;;
21170;SDS011;10743;52.160;20.910;2023-03-20T16:03:48;315.73;;;192.48;;
21170;SDS011;10743;52.160;20.910;2023-03-20T16:06:19;355.92;;;256.80;;
21170;SDS011;10743;52.160;20.910;2023-03-20T16:09:00;400.45;;;284.92;;
21170;SDS011;10743;52.160;20.910;2023-03-20T16:11:36;338.67;;;267.35;;
21170;SDS011;10743;52.160;20.910;2023-03-20T16:14:18;225.87;;;67.90;;
21170;SDS011;10743;52.160;20.910;2023-03-20T16:16:50;435.53;;;300.67;;
21170;SDS011;10743;52.160;20.910;2023-03-20T16:19:20;225.87;;;66.77;;
21170;SDS011;10743;52.160;20.910;2023-03-20T16:21:48;226.13;;;67.67;;
21170;SDS011;10743;52.160;20.910;2023-03-20T16:24:28;236.70;;;71.63;;
21170;SDS011;10743;52.160;20.910;2023-03-20T16:27:04;223.90;;;67.63;;
21170;SDS011;10743;52.160;20.910;2023-03-20T16:29:33;236.77;;;70.97;;
21170;SDS011;10743;52.160;20.910;2023-03-20T16:32:06;432.67;;;273.05;;
21170;SDS011;10743;52.160;20.910;2023-03-20T16:34:56;331.45;;;257.50;;
21170;SDS011;10743;52.160;20.910;2023-03-20T16:37:27;348.85;;;265.95;;
21170;SDS011;10743;52.160;20.910;2023-03-20T16:40:11;401.40;;;337.85;;
21170;SDS011;10743;52.160;20.910;2023-03-20T16:45:47;395.30;;;331.98;;
21170;SDS011;10743;52.160;20.910;2023-03-20T16:48:24;477.10;;;323.90;;
21170;SDS011;10743;52.160;20.910;2023-03-20T16:51:07;250.63;;;77.23;;
21170;SDS011;10743;52.160;20.910;2023-03-20T16:53:45;252.37;;;83.10;;
21170;SDS011;10743;52.160;20.910;2023-03-20T16:56:21;247.37;;;80.77;;
21170;SDS011;10743;52.160;20.910;2023-03-20T16:58:54;362.08;;;316.85;;
21170;SDS011;10743;52.160;20.910;2023-03-20T17:01:23;322.67;;;277.95;;
21170;SDS011;10743;52.160;20.910;2023-03-20T17:03:54;374.77;;;304.38;;
21170;SDS011;10743;52.160;20.910;2023-03-20T17:09:07;339.50;;;303.05;;
21170;SDS011;10743;52.160;20.910;2023-03-20T17:14:39;286.75;;;238.10;;
21170;SDS011;10743;52.160;20.910;2023-03-20T17:17:17;340.02;;;284.50;;
21170;SDS011;10743;52.160;20.910;2023-03-20T17:19:47;352.02;;;313.50;;
21170;SDS011;10743;52.160;20.910;2023-03-20T17:22:19;337.27;;;265.88;;
21170;SDS011;10743;52.160;20.910;2023-03-20T17:24:51;106.95;;;84.00;;
21170;SDS011;10743;52.160;20.910;2023-03-20T17:27:18;121.45;;;78.90;;
21170;SDS011;10743;52.160;20.910;2023-03-20T17:29:46;188.80;;;135.73;;